sensor_id;sensor_type;location;lat;lon;timestamp;P1;durP1;ratioP1;P2;durP2;ratioP2
8044;SDS011;4065;48.754;9.982;2022-09-29T00:02:06;4.60;;;3.53;;
8044;SDS011;4065;48.754;9.982;2022-09-29T00:05:08;4.53;;;3.60;;
8044;SDS011;4065;48.754;9.982;2022-09-29T00:08:10;4.28;;;3.88;;
8044;SDS011;4065;48.754;9.982;2022-09-29T00:11:14;4.60;;;4.10;;
8044;SDS011;4065;48.754;9.982;2022-09-29T00:14:17;4.07;;;3.75;;
8044;SDS011;4065;48.754;9.982;2022-09-29T00:17:18;4.20;;;3.80;;
8044;SDS011;4065;48.754;9.982;2022-09-29T00:20:20;4.20;;;3.53;;
8044;SDS011;4065;48.754;9.982;2022-09-29T00:23:22;4.80;;;3.80;;
8044;SDS011;4065;48.754;9.982;2022-09-29T00:26:25;3.88;;;3.58;;
8044;SDS011;4065;48.754;9.982;2022-09-29T00:29:30;3.83;;;3.53;;
8044;SDS011;4065;48.754;9.982;2022-09-29T00:32:32;6.65;;;4.25;;
8044;SDS011;4065;48.754;9.982;2022-09-29T00:35:33;4.35;;;3.60;;
8044;SDS011;4065;48.754;9.982;2022-09-29T00:38:35;4.30;;;3.90;;
8044;SDS011;4065;48.754;9.982;2022-09-29T00:41:38;8.38;;;5.40;;
8044;SDS011;4065;48.754;9.982;2022-09-29T00:44:52;10.32;;;5.60;;
8044;SDS011;4065;48.754;9.982;2022-09-29T00:47:59;5.63;;;4.90;;
8044;SDS011;4065;48.754;9.982;2022-09-29T00:51:03;5.50;;;4.40;;
8044;SDS011;4065;48.754;9.982;2022-09-29T00:54:05;7.28;;;5.22;;
8044;SDS011;4065;48.754;9.982;2022-09-29T00:57:09;7.00;;;4.20;;
8044;SDS011;4065;48.754;9.982;2022-09-29T01:00:12;4.00;;;3.67;;
8044;SDS011;4065;48.754;9.982;2022-09-29T01:03:15;6.80;;;4.47;;
8044;SDS011;4065;48.754;9.982;2022-09-29T01:06:20;5.68;;;3.47;;
8044;SDS011;4065;48.754;9.982;2022-09-29T01:09:24;4.88;;;3.70;;
8044;SDS011;4065;48.754;9.982;2022-09-29T01:12:28;4.93;;;3.60;;
8044;SDS011;4065;48.754;9.982;2022-09-29T01:15:30;4.25;;;3.53;;
8044;SDS011;4065;48.754;9.982;2022-09-29T01:18:33;5.65;;;3.67;;
8044;SDS011;4065;48.754;9.982;2022-09-29T01:21:36;5.35;;;3.42;;
8044;SDS011;4065;48.754;9.982;2022-09-29T01:28:14;3.90;;;3.58;;
8044;SDS011;4065;48.754;9.982;2022-09-29T01:31:26;4.25;;;3.85;;
8044;SDS011;4065;48.754;9.982;2022-09-29T01:34:32;3.95;;;3.65;;
8044;SDS011;4065;48.754;9.982;2022-09-29T01:37:42;4.47;;;3.72;;
8044;SDS011;4065;48.754;9.982;2022-09-29T01:40:53;3.88;;;3.55;;
8044;SDS011;4065;48.754;9.982;2022-09-29T01:44:00;3.92;;;3.60;;
8044;SDS011;4065;48.754;9.982;2022-09-29T01:47:06;5.63;;;3.70;;
8044;SDS011;4065;48.754;9.982;2022-09-29T01:50:10;4.65;;;3.88;;
8044;SDS011;4065;48.754;9.982;2022-09-29T01:53:15;4.55;;;3.67;;
8044;SDS011;4065;48.754;9.982;2022-09-29T01:56:23;4.80;;;3.70;;
8044;SDS011;4065;48.754;9.982;2022-09-29T01:59:29;4.43;;;3.60;;
8044;SDS011;4065;48.754;9.982;2022-09-29T02:02:40;8.90;;;5.25;;
8044;SDS011;4065;48.754;9.982;2022-09-29T02:05:46;4.65;;;4.25;;
8044;SDS011;4065;48.754;9.982;2022-09-29T02:08:51;7.78;;;5.05;;
8044;SDS011;4065;48.754;9.982;2022-09-29T02:11:54;7.15;;;4.82;;
8044;SDS011;4065;48.754;9.982;2022-09-29T02:14:58;6.45;;;4.78;;
8044;SDS011;4065;48.754;9.982;2022-09-29T02:18:05;9.20;;;5.15;;
8044;SDS011;4065;48.754;9.982;2022-09-29T02:21:10;6.15;;;4.50;;
8044;SDS011;4065;48.754;9.982;2022-09-29T02:24:11;7.18;;;4.72;;
8044;SDS011;4065;48.754;9.982;2022-09-29T02:27:13;5.78;;;5.18;;
8044;SDS011;4065;48.754;9.982;2022-09-29T02:30:15;7.38;;;5.80;;
8044;SDS011;4065;48.754;9.982;2022-09-29T02:33:20;6.63;;;5.95;;
8044;SDS011;4065;48.754;9.982;2022-09-29T02:36:25;6.07;;;5.55;;
8044;SDS011;4065;48.754;9.982;2022-09-29T02:39:34;5.63;;;5.10;;
8044;SDS011;4065;48.754;9.982;2022-09-29T02:42:44;8.10;;;5.70;;
8044;SDS011;4065;48.754;9.982;2022-09-29T02:45:55;6.97;;;6.28;;
8044;SDS011;4065;48.754;9.982;2022-09-29T02:49:10;6.90;;;6.20;;
8044;SDS011;4065;48.754;9.982;2022-09-29T02:52:22;5.80;;;5.30;;
8044;SDS011;4065;48.754;9.982;2022-09-29T02:55:28;6.95;;;6.22;;
8044;SDS011;4065;48.754;9.982;2022-09-29T02:58:34;11.95;;;8.90;;
8044;SDS011;4065;48.754;9.982;2022-09-29T03:01:45;7.32;;;5.00;;
8044;SDS011;4065;48.754;9.982;2022-09-29T03:04:50;6.30;;;4.80;;
8044;SDS011;4065;48.754;9.982;2022-09-29T03:07:52;7.15;;;5.47;;
8044;SDS011;4065;48.754;9.982;2022-09-29T03:10:54;5.47;;;4.97;;
8044;SDS011;4065;48.754;9.982;2022-09-29T03:13:55;8.23;;;5.05;;
8044;SDS011;4065;48.754;9.982;2022-09-29T03:16:57;5.25;;;4.75;;
8044;SDS011;4065;48.754;9.982;2022-09-29T03:20:00;5.35;;;4.85;;
8044;SDS011;4065;48.754;9.982;2022-09-29T03:23:03;7.03;;;5.13;;
8044;SDS011;4065;48.754;9.982;2022-09-29T03:26:04;7.45;;;5.63;;
8044;SDS011;4065;48.754;9.982;2022-09-29T03:29:06;5.05;;;4.55;;
8044;SDS011;4065;48.754;9.982;2022-09-29T03:32:08;5.15;;;4.68;;
8044;SDS011;4065;48.754;9.982;2022-09-29T03:35:11;5.35;;;4.90;;
8044;SDS011;4065;48.754;9.982;2022-09-29T03:38:12;5.28;;;4.78;;
8044;SDS011;4065;48.754;9.982;2022-09-29T03:41:14;5.35;;;4.85;;
8044;SDS011;4065;48.754;9.982;2022-09-29T03:44:16;5.50;;;4.97;;
8044;SDS011;4065;48.754;9.982;2022-09-29T03:47:17;4.97;;;4.45;;
8044;SDS011;4065;48.754;9.982;2022-09-29T03:50:20;5.18;;;4.72;;
8044;SDS011;4065;48.754;9.982;2022-09-29T03:53:22;6.93;;;4.85;;
8044;SDS011;4065;48.754;9.982;2022-09-29T03:56:24;5.45;;;4.95;;
8044;SDS011;4065;48.754;9.982;2022-09-29T03:59:25;6.47;;;5.30;;
8044;SDS011;4065;48.754;9.982;2022-09-29T04:02:27;6.70;;;5.55;;
8044;SDS011;4065;48.754;9.982;2022-09-29T04:05:30;6.63;;;5.32;;
8044;SDS011;4065;48.754;9.982;2022-09-29T04:08:34;5.50;;;4.90;;
8044;SDS011;4065;48.754;9.982;2022-09-29T04:11:36;5.80;;;5.30;;
8044;SDS011;4065;48.754;9.982;2022-09-29T04:14:38;5.90;;;5.30;;
8044;SDS011;4065;48.754;9.982;2022-09-29T04:17:39;7.40;;;5.85;;
8044;SDS011;4065;48.754;9.982;2022-09-29T04:20:42;6.75;;;5.75;;
8044;SDS011;4065;48.754;9.982;2022-09-29T04:23:44;7.90;;;5.40;;
8044;SDS011;4065;48.754;9.982;2022-09-29T04:26:46;5.50;;;4.95;;
8044;SDS011;4065;48.754;9.982;2022-09-29T04:29:47;6.05;;;5.05;;
8044;SDS011;4065;48.754;9.982;2022-09-29T04:32:49;5.57;;;4.90;;
8044;SDS011;4065;48.754;9.982;2022-09-29T04:35:52;5.07;;;4.68;;
8044;SDS011;4065;48.754;9.982;2022-09-29T04:38:54;6.32;;;5.13;;
8044;SDS011;4065;48.754;9.982;2022-09-29T04:41:56;7.35;;;4.97;;
8044;SDS011;4065;48.754;9.982;2022-09-29T04:44:57;7.30;;;5.10;;
8044;SDS011;4065;48.754;9.982;2022-09-29T04:47:59;10.43;;;7.30;;
8044;SDS011;4065;48.754;9.982;2022-09-29T04:51:03;6.55;;;5.85;;
8044;SDS011;4065;48.754;9.982;2022-09-29T04:54:05;6.90;;;4.93;;
8044;SDS011;4065;48.754;9.982;2022-09-29T04:57:10;7.00;;;5.03;;
8044;SDS011;4065;48.754;9.982;2022-09-29T05:00:12;6.18;;;5.45;;
8044;SDS011;4065;48.754;9.982;2022-09-29T05:03:14;6.43;;;5.45;;
8044;SDS011;4065;48.754;9.982;2022-09-29T05:06:17;10.35;;;5.60;;
8044;SDS011;4065;48.754;9.982;2022-09-29T05:09:18;10.25;;;7.10;;
8044;SDS011;4065;48.754;9.982;2022-09-29T05:12:20;12.00;;;8.02;;
8044;SDS011;4065;48.754;9.982;2022-09-29T05:15:22;12.07;;;6.60;;
8044;SDS011;4065;48.754;9.982;2022-09-29T05:18:24;7.13;;;6.43;;
8044;SDS011;4065;48.754;9.982;2022-09-29T05:21:27;6.65;;;5.60;;
8044;SDS011;4065;48.754;9.982;2022-09-29T05:24:29;7.63;;;5.88;;
8044;SDS011;4065;48.754;9.982;2022-09-29T05:27:31;8.15;;;6.03;;
8044;SDS011;4065;48.754;9.982;2022-09-29T05:30:35;6.45;;;5.82;;
8044;SDS011;4065;48.754;9.982;2022-09-29T05:33:37;10.07;;;6.45;;
8044;SDS011;4065;48.754;9.982;2022-09-29T05:36:43;7.50;;;6.80;;
8044;SDS011;4065;48.754;9.982;2022-09-29T05:39:45;8.50;;;5.32;;
8044;SDS011;4065;48.754;9.982;2022-09-29T05:42:47;8.77;;;6.97;;
8044;SDS011;4065;48.754;9.982;2022-09-29T05:45:48;12.50;;;9.45;;
8044;SDS011;4065;48.754;9.982;2022-09-29T05:48:50;9.05;;;6.63;;
8044;SDS011;4065;48.754;9.982;2022-09-29T05:51:53;6.97;;;5.93;;
8044;SDS011;4065;48.754;9.982;2022-09-29T05:54:55;6.82;;;6.10;;
8044;SDS011;4065;48.754;9.982;2022-09-29T05:57:57;12.65;;;6.07;;
8044;SDS011;4065;48.754;9.982;2022-09-29T06:01:04;7.18;;;6.47;;
8044;SDS011;4065;48.754;9.982;2022-09-29T06:04:06;8.27;;;6.28;;
8044;SDS011;4065;48.754;9.982;2022-09-29T06:07:09;8.60;;;7.10;;
8044;SDS011;4065;48.754;9.982;2022-09-29T06:10:11;15.80;;;11.80;;
8044;SDS011;4065;48.754;9.982;2022-09-29T06:13:12;12.15;;;9.20;;
8044;SDS011;4065;48.754;9.982;2022-09-29T06:16:14;8.10;;;6.60;;
8044;SDS011;4065;48.754;9.982;2022-09-29T06:19:17;6.53;;;5.75;;
8044;SDS011;4065;48.754;9.982;2022-09-29T06:22:20;8.40;;;5.72;;
8044;SDS011;4065;48.754;9.982;2022-09-29T06:25:22;7.03;;;6.30;;
8044;SDS011;4065;48.754;9.982;2022-09-29T06:28:24;7.00;;;5.70;;
8044;SDS011;4065;48.754;9.982;2022-09-29T06:31:26;9.60;;;8.60;;
8044;SDS011;4065;48.754;9.982;2022-09-29T06:34:29;8.13;;;5.93;;
8044;SDS011;4065;48.754;9.982;2022-09-29T06:37:32;7.00;;;6.30;;
8044;SDS011;4065;48.754;9.982;2022-09-29T06:40:35;9.00;;;7.00;;
8044;SDS011;4065;48.754;9.982;2022-09-29T06:43:37;6.55;;;5.95;;
8044;SDS011;4065;48.754;9.982;2022-09-29T06:46:39;8.50;;;6.05;;
8044;SDS011;4065;48.754;9.982;2022-09-29T06:49:40;6.47;;;5.70;;
8044;SDS011;4065;48.754;9.982;2022-09-29T06:52:43;6.43;;;4.95;;
8044;SDS011;4065;48.754;9.982;2022-09-29T06:55:50;6.80;;;4.93;;
8044;SDS011;4065;48.754;9.982;2022-09-29T06:58:52;5.10;;;4.70;;
8044;SDS011;4065;48.754;9.982;2022-09-29T07:01:54;7.28;;;5.40;;
8044;SDS011;4065;48.754;9.982;2022-09-29T07:04:56;7.80;;;5.15;;
8044;SDS011;4065;48.754;9.982;2022-09-29T07:08:03;7.07;;;5.47;;
8044;SDS011;4065;48.754;9.982;2022-09-29T07:11:05;5.78;;;5.15;;
8044;SDS011;4065;48.754;9.982;2022-09-29T07:14:07;7.15;;;6.38;;
8044;SDS011;4065;48.754;9.982;2022-09-29T07:17:08;8.10;;;5.57;;
8044;SDS011;4065;48.754;9.982;2022-09-29T07:20:12;6.55;;;5.80;;
8044;SDS011;4065;48.754;9.982;2022-09-29T07:23:15;5.85;;;5.35;;
8044;SDS011;4065;48.754;9.982;2022-09-29T07:26:17;5.13;;;4.63;;
8044;SDS011;4065;48.754;9.982;2022-09-29T07:29:21;6.93;;;6.05;;
8044;SDS011;4065;48.754;9.982;2022-09-29T07:32:24;6.30;;;5.40;;
8044;SDS011;4065;48.754;9.982;2022-09-29T07:35:26;8.25;;;7.45;;
8044;SDS011;4065;48.754;9.982;2022-09-29T07:38:29;7.60;;;6.35;;
8044;SDS011;4065;48.754;9.982;2022-09-29T07:41:31;7.75;;;6.90;;
8044;SDS011;4065;48.754;9.982;2022-09-29T07:44:33;6.85;;;5.60;;
8044;SDS011;4065;48.754;9.982;2022-09-29T07:47:35;6.28;;;5.68;;
8044;SDS011;4065;48.754;9.982;2022-09-29T07:50:37;6.43;;;5.35;;
8044;SDS011;4065;48.754;9.982;2022-09-29T07:53:41;5.28;;;4.78;;
8044;SDS011;4065;48.754;9.982;2022-09-29T07:56:43;5.85;;;5.05;;
8044;SDS011;4065;48.754;9.982;2022-09-29T07:59:45;6.55;;;5.05;;
8044;SDS011;4065;48.754;9.982;2022-09-29T08:02:47;6.13;;;5.57;;
8044;SDS011;4065;48.754;9.982;2022-09-29T08:05:48;6.70;;;4.80;;
8044;SDS011;4065;48.754;9.982;2022-09-29T08:08:52;5.57;;;4.85;;
8044;SDS011;4065;48.754;9.982;2022-09-29T08:11:57;5.25;;;4.75;;
8044;SDS011;4065;48.754;9.982;2022-09-29T08:14:59;5.30;;;4.68;;
8044;SDS011;4065;48.754;9.982;2022-09-29T08:18:01;5.35;;;4.85;;
8044;SDS011;4065;48.754;9.982;2022-09-29T08:21:02;6.75;;;5.45;;
8044;SDS011;4065;48.754;9.982;2022-09-29T08:24:06;7.47;;;5.70;;
8044;SDS011;4065;48.754;9.982;2022-09-29T08:27:08;8.15;;;5.53;;
8044;SDS011;4065;48.754;9.982;2022-09-29T08:30:10;6.07;;;5.47;;
8044;SDS011;4065;48.754;9.982;2022-09-29T08:33:12;7.65;;;6.50;;
8044;SDS011;4065;48.754;9.982;2022-09-29T08:36:15;7.43;;;5.95;;
8044;SDS011;4065;48.754;9.982;2022-09-29T08:39:19;5.65;;;5.13;;
8044;SDS011;4065;48.754;9.982;2022-09-29T08:42:21;5.32;;;4.88;;
8044;SDS011;4065;48.754;9.982;2022-09-29T08:45:28;5.55;;;5.03;;
8044;SDS011;4065;48.754;9.982;2022-09-29T08:48:32;7.13;;;5.63;;
8044;SDS011;4065;48.754;9.982;2022-09-29T08:51:38;5.88;;;4.70;;
8044;SDS011;4065;48.754;9.982;2022-09-29T08:54:46;6.03;;;5.40;;
8044;SDS011;4065;48.754;9.982;2022-09-29T08:57:48;5.47;;;5.00;;
8044;SDS011;4065;48.754;9.982;2022-09-29T09:00:56;5.13;;;4.63;;
8044;SDS011;4065;48.754;9.982;2022-09-29T09:04:10;6.20;;;4.65;;
8044;SDS011;4065;48.754;9.982;2022-09-29T09:07:28;5.10;;;4.15;;
8044;SDS011;4065;48.754;9.982;2022-09-29T09:10:38;5.70;;;4.38;;
8044;SDS011;4065;48.754;9.982;2022-09-29T09:13:49;7.68;;;4.05;;
8044;SDS011;4065;48.754;9.982;2022-09-29T09:17:00;4.82;;;3.75;;
8044;SDS011;4065;48.754;9.982;2022-09-29T09:20:10;3.92;;;3.58;;
8044;SDS011;4065;48.754;9.982;2022-09-29T09:23:19;5.40;;;3.88;;
8044;SDS011;4065;48.754;9.982;2022-09-29T09:26:28;3.75;;;3.35;;
8044;SDS011;4065;48.754;9.982;2022-09-29T09:29:49;3.05;;;2.85;;
8044;SDS011;4065;48.754;9.982;2022-09-29T09:33:05;4.25;;;3.80;;
8044;SDS011;4065;48.754;9.982;2022-09-29T09:36:12;6.32;;;4.28;;
8044;SDS011;4065;48.754;9.982;2022-09-29T09:39:19;5.68;;;3.85;;
8044;SDS011;4065;48.754;9.982;2022-09-29T09:42:26;6.63;;;5.85;;
8044;SDS011;4065;48.754;9.982;2022-09-29T09:45:31;5.72;;;4.57;;
8044;SDS011;4065;48.754;9.982;2022-09-29T09:48:37;7.53;;;4.43;;
8044;SDS011;4065;48.754;9.982;2022-09-29T09:51:44;6.25;;;4.50;;
8044;SDS011;4065;48.754;9.982;2022-09-29T09:54:51;5.80;;;4.60;;
8044;SDS011;4065;48.754;9.982;2022-09-29T09:58:08;7.32;;;5.10;;
8044;SDS011;4065;48.754;9.982;2022-09-29T10:01:19;6.97;;;5.88;;
8044;SDS011;4065;48.754;9.982;2022-09-29T10:04:21;6.32;;;5.20;;
8044;SDS011;4065;48.754;9.982;2022-09-29T10:07:26;6.35;;;5.45;;
8044;SDS011;4065;48.754;9.982;2022-09-29T10:10:32;7.43;;;5.28;;
8044;SDS011;4065;48.754;9.982;2022-09-29T10:13:38;5.68;;;4.95;;
8044;SDS011;4065;48.754;9.982;2022-09-29T10:16:42;6.35;;;4.28;;
8044;SDS011;4065;48.754;9.982;2022-09-29T10:19:53;6.97;;;5.05;;
8044;SDS011;4065;48.754;9.982;2022-09-29T10:23:18;6.68;;;5.20;;
8044;SDS011;4065;48.754;9.982;2022-09-29T10:26:26;7.93;;;5.55;;
8044;SDS011;4065;48.754;9.982;2022-09-29T10:29:32;6.25;;;5.50;;
8044;SDS011;4065;48.754;9.982;2022-09-29T10:32:37;6.60;;;4.65;;
8044;SDS011;4065;48.754;9.982;2022-09-29T10:35:39;8.25;;;5.05;;
8044;SDS011;4065;48.754;9.982;2022-09-29T10:38:44;10.68;;;5.90;;
8044;SDS011;4065;48.754;9.982;2022-09-29T10:41:49;7.75;;;5.95;;
8044;SDS011;4065;48.754;9.982;2022-09-29T10:45:00;5.20;;;4.70;;
8044;SDS011;4065;48.754;9.982;2022-09-29T10:48:07;6.95;;;5.68;;
8044;SDS011;4065;48.754;9.982;2022-09-29T10:51:12;7.32;;;5.82;;
8044;SDS011;4065;48.754;9.982;2022-09-29T10:54:22;8.27;;;5.95;;
8044;SDS011;4065;48.754;9.982;2022-09-29T10:57:26;6.60;;;5.55;;
8044;SDS011;4065;48.754;9.982;2022-09-29T11:00:31;7.03;;;6.10;;
8044;SDS011;4065;48.754;9.982;2022-09-29T11:03:36;6.35;;;4.80;;
8044;SDS011;4065;48.754;9.982;2022-09-29T11:06:39;6.32;;;4.65;;
8044;SDS011;4065;48.754;9.982;2022-09-29T11:09:42;6.88;;;5.63;;
8044;SDS011;4065;48.754;9.982;2022-09-29T11:12:44;5.30;;;4.80;;
8044;SDS011;4065;48.754;9.982;2022-09-29T11:15:49;6.47;;;4.85;;
8044;SDS011;4065;48.754;9.982;2022-09-29T11:18:51;8.18;;;5.10;;
8044;SDS011;4065;48.754;9.982;2022-09-29T11:22:01;7.80;;;5.22;;
8044;SDS011;4065;48.754;9.982;2022-09-29T11:28:57;6.68;;;5.15;;
8044;SDS011;4065;48.754;9.982;2022-09-29T11:32:26;8.90;;;5.57;;
8044;SDS011;4065;48.754;9.982;2022-09-29T11:35:39;7.70;;;5.50;;
8044;SDS011;4065;48.754;9.982;2022-09-29T11:38:52;6.82;;;5.30;;
8044;SDS011;4065;48.754;9.982;2022-09-29T11:42:03;6.40;;;5.45;;
8044;SDS011;4065;48.754;9.982;2022-09-29T11:45:10;8.13;;;5.05;;
8044;SDS011;4065;48.754;9.982;2022-09-29T11:48:25;10.40;;;6.30;;
8044;SDS011;4065;48.754;9.982;2022-09-29T11:51:52;8.23;;;5.80;;
8044;SDS011;4065;48.754;9.982;2022-09-29T11:55:05;11.63;;;7.70;;
8044;SDS011;4065;48.754;9.982;2022-09-29T11:58:19;7.63;;;5.78;;
8044;SDS011;4065;48.754;9.982;2022-09-29T12:01:29;9.05;;;5.25;;
8044;SDS011;4065;48.754;9.982;2022-09-29T12:04:42;11.57;;;10.35;;
8044;SDS011;4065;48.754;9.982;2022-09-29T12:07:53;7.47;;;5.15;;
8044;SDS011;4065;48.754;9.982;2022-09-29T12:11:03;5.57;;;4.40;;
8044;SDS011;4065;48.754;9.982;2022-09-29T12:14:09;5.75;;;4.13;;
8044;SDS011;4065;48.754;9.982;2022-09-29T12:17:15;8.48;;;5.15;;
8044;SDS011;4065;48.754;9.982;2022-09-29T12:20:19;6.43;;;5.28;;
8044;SDS011;4065;48.754;9.982;2022-09-29T12:23:24;7.75;;;5.70;;
8044;SDS011;4065;48.754;9.982;2022-09-29T12:26:27;6.32;;;5.03;;
8044;SDS011;4065;48.754;9.982;2022-09-29T12:29:31;8.15;;;5.45;;
8044;SDS011;4065;48.754;9.982;2022-09-29T12:32:34;6.85;;;5.00;;
8044;SDS011;4065;48.754;9.982;2022-09-29T12:35:41;6.75;;;5.18;;
8044;SDS011;4065;48.754;9.982;2022-09-29T12:38:48;6.18;;;4.68;;
8044;SDS011;4065;48.754;9.982;2022-09-29T12:41:51;16.05;;;10.82;;
8044;SDS011;4065;48.754;9.982;2022-09-29T12:44:56;16.52;;;11.75;;
8044;SDS011;4065;48.754;9.982;2022-09-29T12:48:05;13.55;;;9.60;;
8044;SDS011;4065;48.754;9.982;2022-09-29T12:51:19;8.10;;;5.78;;
8044;SDS011;4065;48.754;9.982;2022-09-29T12:54:24;8.23;;;5.90;;
8044;SDS011;4065;48.754;9.982;2022-09-29T12:57:29;5.20;;;4.68;;
8044;SDS011;4065;48.754;9.982;2022-09-29T13:00:33;4.78;;;4.05;;
8044;SDS011;4065;48.754;9.982;2022-09-29T13:03:51;4.72;;;3.70;;
8044;SDS011;4065;48.754;9.982;2022-09-29T13:10:43;4.18;;;3.70;;
8044;SDS011;4065;48.754;9.982;2022-09-29T13:13:59;3.60;;;3.30;;
8044;SDS011;4065;48.754;9.982;2022-09-29T13:17:18;5.78;;;4.88;;
8044;SDS011;4065;48.754;9.982;2022-09-29T13:20:34;4.40;;;4.00;;
8044;SDS011;4065;48.754;9.982;2022-09-29T13:23:57;5.30;;;3.58;;
8044;SDS011;4065;48.754;9.982;2022-09-29T13:30:31;3.45;;;3.15;;
8044;SDS011;4065;48.754;9.982;2022-09-29T13:33:35;3.67;;;3.33;;
8044;SDS011;4065;48.754;9.982;2022-09-29T13:36:38;5.20;;;4.40;;
8044;SDS011;4065;48.754;9.982;2022-09-29T13:39:51;5.63;;;3.95;;
8044;SDS011;4065;48.754;9.982;2022-09-29T13:43:00;3.20;;;2.60;;
8044;SDS011;4065;48.754;9.982;2022-09-29T13:49:28;3.55;;;2.83;;
8044;SDS011;4065;48.754;9.982;2022-09-29T13:52:36;2.55;;;2.35;;
8044;SDS011;4065;48.754;9.982;2022-09-29T13:55:50;3.35;;;2.30;;
8044;SDS011;4065;48.754;9.982;2022-09-29T13:58:57;2.80;;;2.50;;
8044;SDS011;4065;48.754;9.982;2022-09-29T14:01:59;2.80;;;2.58;;
8044;SDS011;4065;48.754;9.982;2022-09-29T14:05:02;3.20;;;2.55;;
8044;SDS011;4065;48.754;9.982;2022-09-29T14:08:07;3.08;;;2.60;;
8044;SDS011;4065;48.754;9.982;2022-09-29T14:11:19;3.10;;;2.28;;
8044;SDS011;4065;48.754;9.982;2022-09-29T14:14:23;3.08;;;2.15;;
8044;SDS011;4065;48.754;9.982;2022-09-29T14:17:28;2.50;;;2.15;;
8044;SDS011;4065;48.754;9.982;2022-09-29T14:20:32;2.65;;;2.20;;
8044;SDS011;4065;48.754;9.982;2022-09-29T14:23:46;3.30;;;2.75;;
8044;SDS011;4065;48.754;9.982;2022-09-29T14:26:51;3.22;;;2.30;;
8044;SDS011;4065;48.754;9.982;2022-09-29T14:29:55;2.92;;;2.05;;
8044;SDS011;4065;48.754;9.982;2022-09-29T14:33:02;2.75;;;1.90;;
8044;SDS011;4065;48.754;9.982;2022-09-29T14:36:11;2.33;;;2.13;;
8044;SDS011;4065;48.754;9.982;2022-09-29T14:39:14;2.33;;;2.10;;
8044;SDS011;4065;48.754;9.982;2022-09-29T14:42:17;4.05;;;2.10;;
8044;SDS011;4065;48.754;9.982;2022-09-29T14:45:19;3.13;;;2.08;;
8044;SDS011;4065;48.754;9.982;2022-09-29T14:48:41;5.47;;;3.22;;
8044;SDS011;4065;48.754;9.982;2022-09-29T14:52:07;5.50;;;3.95;;
8044;SDS011;4065;48.754;9.982;2022-09-29T14:55:13;2.53;;;2.20;;
8044;SDS011;4065;48.754;9.982;2022-09-29T14:58:22;2.67;;;2.00;;
8044;SDS011;4065;48.754;9.982;2022-09-29T15:01:33;4.32;;;3.30;;
8044;SDS011;4065;48.754;9.982;2022-09-29T15:04:38;2.92;;;2.25;;
8044;SDS011;4065;48.754;9.982;2022-09-29T15:07:40;15.20;;;10.90;;
8044;SDS011;4065;48.754;9.982;2022-09-29T15:10:42;11.00;;;6.75;;
8044;SDS011;4065;48.754;9.982;2022-09-29T15:13:47;2.85;;;2.50;;
8044;SDS011;4065;48.754;9.982;2022-09-29T15:16:51;5.10;;;2.58;;
8044;SDS011;4065;48.754;9.982;2022-09-29T15:20:04;5.65;;;3.80;;
8044;SDS011;4065;48.754;9.982;2022-09-29T15:23:14;8.10;;;5.20;;
8044;SDS011;4065;48.754;9.982;2022-09-29T15:26:29;5.68;;;4.47;;
8044;SDS011;4065;48.754;9.982;2022-09-29T15:29:33;4.47;;;2.65;;
8044;SDS011;4065;48.754;9.982;2022-09-29T15:32:35;25.95;;;17.98;;
8044;SDS011;4065;48.754;9.982;2022-09-29T15:35:37;3.83;;;2.85;;
8044;SDS011;4065;48.754;9.982;2022-09-29T15:38:43;3.83;;;3.35;;
8044;SDS011;4065;48.754;9.982;2022-09-29T15:41:45;4.75;;;3.63;;
8044;SDS011;4065;48.754;9.982;2022-09-29T15:44:51;5.65;;;2.78;;
8044;SDS011;4065;48.754;9.982;2022-09-29T15:47:59;8.10;;;7.50;;
8044;SDS011;4065;48.754;9.982;2022-09-29T15:51:02;5.45;;;4.68;;
8044;SDS011;4065;48.754;9.982;2022-09-29T15:54:04;6.82;;;4.22;;
8044;SDS011;4065;48.754;9.982;2022-09-29T15:57:13;5.47;;;3.42;;
8044;SDS011;4065;48.754;9.982;2022-09-29T16:00:47;3.72;;;3.42;;
8044;SDS011;4065;48.754;9.982;2022-09-29T16:03:49;5.47;;;4.93;;
8044;SDS011;4065;48.754;9.982;2022-09-29T16:06:53;34.08;;;22.13;;
8044;SDS011;4065;48.754;9.982;2022-09-29T16:10:05;18.65;;;8.10;;
8044;SDS011;4065;48.754;9.982;2022-09-29T16:13:14;9.52;;;7.15;;
8044;SDS011;4065;48.754;9.982;2022-09-29T16:16:23;4.35;;;3.80;;
8044;SDS011;4065;48.754;9.982;2022-09-29T16:19:28;7.57;;;6.30;;
8044;SDS011;4065;48.754;9.982;2022-09-29T16:22:31;10.20;;;7.30;;
8044;SDS011;4065;48.754;9.982;2022-09-29T16:25:33;9.38;;;7.07;;
8044;SDS011;4065;48.754;9.982;2022-09-29T16:28:35;6.20;;;4.22;;
8044;SDS011;4065;48.754;9.982;2022-09-29T16:31:40;3.83;;;3.42;;
8044;SDS011;4065;48.754;9.982;2022-09-29T16:34:45;4.90;;;4.43;;
8044;SDS011;4065;48.754;9.982;2022-09-29T16:37:50;8.70;;;6.10;;
8044;SDS011;4065;48.754;9.982;2022-09-29T16:40:51;4.55;;;3.78;;
8044;SDS011;4065;48.754;9.982;2022-09-29T16:44:05;8.75;;;4.10;;
8044;SDS011;4065;48.754;9.982;2022-09-29T16:47:15;10.02;;;6.85;;
8044;SDS011;4065;48.754;9.982;2022-09-29T16:50:17;7.05;;;3.50;;
8044;SDS011;4065;48.754;9.982;2022-09-29T16:53:22;7.40;;;6.70;;
8044;SDS011;4065;48.754;9.982;2022-09-29T16:56:26;6.30;;;5.57;;
8044;SDS011;4065;48.754;9.982;2022-09-29T16:59:32;10.18;;;9.15;;
8044;SDS011;4065;48.754;9.982;2022-09-29T17:02:35;10.73;;;9.63;;
8044;SDS011;4065;48.754;9.982;2022-09-29T17:05:38;8.65;;;7.85;;
8044;SDS011;4065;48.754;9.982;2022-09-29T17:08:42;6.10;;;5.60;;
8044;SDS011;4065;48.754;9.982;2022-09-29T17:11:44;6.65;;;5.50;;
8044;SDS011;4065;48.754;9.982;2022-09-29T17:14:48;6.55;;;5.88;;
8044;SDS011;4065;48.754;9.982;2022-09-29T17:17:51;9.43;;;7.63;;
8044;SDS011;4065;48.754;9.982;2022-09-29T17:20:54;10.15;;;9.23;;
8044;SDS011;4065;48.754;9.982;2022-09-29T17:23:56;9.93;;;9.02;;
8044;SDS011;4065;48.754;9.982;2022-09-29T17:26:59;7.60;;;7.00;;
8044;SDS011;4065;48.754;9.982;2022-09-29T17:30:21;16.30;;;14.05;;
8044;SDS011;4065;48.754;9.982;2022-09-29T17:33:26;20.27;;;17.70;;
8044;SDS011;4065;48.754;9.982;2022-09-29T17:36:27;12.20;;;10.40;;
8044;SDS011;4065;48.754;9.982;2022-09-29T17:39:29;8.05;;;6.05;;
8044;SDS011;4065;48.754;9.982;2022-09-29T17:42:31;6.13;;;5.53;;
8044;SDS011;4065;48.754;9.982;2022-09-29T17:45:32;6.20;;;5.70;;
8044;SDS011;4065;48.754;9.982;2022-09-29T17:48:38;6.50;;;5.90;;
8044;SDS011;4065;48.754;9.982;2022-09-29T17:51:39;8.15;;;6.97;;
8044;SDS011;4065;48.754;9.982;2022-09-29T17:54:41;17.05;;;12.13;;
8044;SDS011;4065;48.754;9.982;2022-09-29T17:57:43;16.33;;;13.07;;
8044;SDS011;4065;48.754;9.982;2022-09-29T18:00:47;12.73;;;11.20;;
8044;SDS011;4065;48.754;9.982;2022-09-29T18:03:51;17.83;;;14.25;;
8044;SDS011;4065;48.754;9.982;2022-09-29T18:06:53;17.67;;;15.00;;
8044;SDS011;4065;48.754;9.982;2022-09-29T18:09:54;18.98;;;15.07;;
8044;SDS011;4065;48.754;9.982;2022-09-29T18:12:56;19.83;;;15.95;;
8044;SDS011;4065;48.754;9.982;2022-09-29T18:15:58;22.13;;;17.33;;
8044;SDS011;4065;48.754;9.982;2022-09-29T18:19:02;25.60;;;18.00;;
8044;SDS011;4065;48.754;9.982;2022-09-29T18:22:04;27.63;;;17.85;;
8044;SDS011;4065;48.754;9.982;2022-09-29T18:25:07;24.92;;;15.82;;
8044;SDS011;4065;48.754;9.982;2022-09-29T18:28:10;13.23;;;9.93;;
8044;SDS011;4065;48.754;9.982;2022-09-29T18:31:20;11.35;;;10.15;;
8044;SDS011;4065;48.754;9.982;2022-09-29T18:34:25;17.40;;;11.27;;
8044;SDS011;4065;48.754;9.982;2022-09-29T18:37:30;15.77;;;12.43;;
8044;SDS011;4065;48.754;9.982;2022-09-29T18:40:34;13.90;;;12.35;;
8044;SDS011;4065;48.754;9.982;2022-09-29T18:43:37;18.65;;;14.95;;
8044;SDS011;4065;48.754;9.982;2022-09-29T18:46:39;19.83;;;14.25;;
8044;SDS011;4065;48.754;9.982;2022-09-29T18:49:43;16.30;;;14.55;;
8044;SDS011;4065;48.754;9.982;2022-09-29T18:52:45;22.83;;;18.65;;
8044;SDS011;4065;48.754;9.982;2022-09-29T18:55:47;16.02;;;14.32;;
8044;SDS011;4065;48.754;9.982;2022-09-29T18:58:51;17.95;;;14.70;;
8044;SDS011;4065;48.754;9.982;2022-09-29T19:01:53;18.02;;;15.88;;
8044;SDS011;4065;48.754;9.982;2022-09-29T19:04:56;19.63;;;17.00;;
8044;SDS011;4065;48.754;9.982;2022-09-29T19:07:58;19.60;;;15.13;;
8044;SDS011;4065;48.754;9.982;2022-09-29T19:11:01;14.93;;;12.73;;
8044;SDS011;4065;48.754;9.982;2022-09-29T19:14:03;19.98;;;15.02;;
8044;SDS011;4065;48.754;9.982;2022-09-29T19:17:10;19.70;;;15.27;;
8044;SDS011;4065;48.754;9.982;2022-09-29T19:20:14;29.40;;;21.75;;
8044;SDS011;4065;48.754;9.982;2022-09-29T19:23:17;37.90;;;31.08;;
8044;SDS011;4065;48.754;9.982;2022-09-29T19:26:19;25.30;;;22.48;;